Wrightsdale, Pennsylvania
Current Conditions -  °F | °C
As of 3:35 AM on Sunday 26 Oct 2014 (Local Time) from KMQS Reporting Station
Scattered Clouds Scattered Clouds  
Wind Chill: 55°   Ceiling: Unl
Heat Index: 55°   Visibility: 10mi
Dew Point: 48°   Wind: 6mph
Humidity: 77%   Direction: 290°WNW
Pressure: 29.64"   Gusts: NA
Location:  39.7675°N, 76.1818°W
Report Text: KMQS 260735Z AUTO 29005KT 10SM SCT065 13/09 A2964 RMK AO2
Loading
Personal Weather Stations






























Interactive Weather Map
Tropical Storm Tracking
New forecast layout! Learn more

10-Day Weather Forecast

Advertisements
Track Severe Weather on mobile